Time;durP1;ratioP1;P1;durP2;ratioP2;P2;SDS_P1;SDS_P2;PMS_P1;PMS_P2;Temp;Humidity;BMP_temperature;BMP_pressure;BME280_temperature;BME280_humidity;BME280_pressure;Samples;Min_cycle;Max_cycle;Signal;HPM_P1;HPM_P2
2022/05/06 00:00:11;;;;;;;3.12;1.40;;;;;;;12.22;41.08;150723.44;1762456;81;21128;-58
2022/05/06 00:02:38;;;;;;;3.80;1.50;;;;;;;12.20;41.38;150718.23;1762516;81;21061;-58
2022/05/06 00:05:06;;;;;;;3.40;1.60;;;;;;;12.17;41.84;150711.72;1762422;80;21013;-58
2022/05/06 00:07:34;;;;;;;3.12;1.62;;;;;;;12.16;41.89;150710.44;1762577;81;21258;-59
2022/05/06 00:10:03;;;;;;;2.25;1.45;;;;;;;12.16;41.88;150709.13;1762740;81;21033;-59
2022/05/06 00:12:32;;;;;;;5.28;1.62;;;;;;;12.15;41.78;150706.53;1762291;81;21044;-60
2022/05/06 00:14:59;;;;;;;6.75;1.40;;;;;;;12.14;41.80;150703.94;1762727;81;21116;-60
2022/05/06 00:17:27;;;;;;;3.20;1.30;;;;;;;12.11;41.37;150697.42;1762647;80;21041;-60
2022/05/06 00:19:54;;;;;;;3.47;1.40;;;;;;;12.10;41.41;150693.55;1763010;81;21905;-60
2022/05/06 00:22:21;;;;;;;4.00;1.70;;;;;;;12.07;41.60;150685.77;1762354;81;21052;-58
2022/05/06 00:24:48;;;;;;;4.92;1.35;;;;;;;12.00;41.76;150670.09;1762871;80;21057;-58
2022/05/06 00:27:16;;;;;;;5.05;2.10;;;;;;;11.90;41.89;150644.13;1762498;81;21423;-58
2022/05/06 00:29:43;;;;;;;3.17;1.67;;;;;;;11.79;42.23;150615.53;1762824;80;21356;-59
2022/05/06 00:32:10;;;;;;;3.25;1.45;;;;;;;11.64;42.51;150579.20;1762373;80;21272;-59
2022/05/06 00:34:37;;;;;;;3.90;1.60;;;;;;;11.54;42.88;150553.20;1762556;81;21073;-58
2022/05/06 00:37:05;;;;;;;3.20;1.50;;;;;;;11.45;43.03;150532.44;1762809;81;21052;-59
2022/05/06 00:39:32;;;;;;;2.60;1.30;;;;;;;11.36;43.13;150507.78;1762613;81;21084;-59
2022/05/06 00:42:00;;;;;;;4.62;1.52;;;;;;;11.28;43.30;150488.28;1762862;80;20918;-59
2022/05/06 00:44:27;;;;;;;3.90;1.65;;;;;;;11.21;43.42;150470.12;1762396;80;21447;-59
2022/05/06 00:46:54;;;;;;;3.47;1.50;;;;;;;11.11;43.59;150445.45;1763237;81;21142;-59
2022/05/06 00:49:21;;;;;;;2.95;1.65;;;;;;;11.02;43.75;150423.37;1762754;81;21399;-59
2022/05/06 00:51:51;;;;;;;5.12;1.55;;;;;;;10.97;43.93;150411.69;1762879;81;20941;-60
2022/05/06 00:54:18;;;;;;;3.87;1.60;;;;;;;10.93;44.15;150400.00;1738864;81;21084;-60
2022/05/06 00:56:46;;;;;;;3.92;1.45;;;;;;;10.92;44.31;150397.41;1762646;81;21227;-60
2022/05/06 00:59:14;;;;;;;6.20;1.80;;;;;;;10.87;44.57;150387.02;1762842;81;21021;-59
2022/05/06 01:01:42;;;;;;;4.78;1.60;;;;;;;10.84;44.75;150379.23;1762920;81;21530;-60
2022/05/06 01:04:10;;;;;;;4.28;1.32;;;;;;;10.81;44.96;150371.47;1762509;81;20958;-59
2022/05/06 01:06:39;;;;;;;5.80;1.67;;;;;;;10.76;45.02;150358.50;1738899;81;21025;-59
2022/05/06 01:09:07;;;;;;;2.35;1.27;;;;;;;10.73;45.02;150351.98;1762525;81;20984;-59
2022/05/06 01:11:36;;;;;;;6.62;2.10;;;;;;;10.67;45.17;150336.42;1761822;81;20985;-60
2022/05/06 01:14:04;;;;;;;3.95;1.32;;;;;;;10.59;45.31;150316.95;1761984;81;21069;-60
2022/05/06 01:16:34;;;;;;;5.22;1.65;;;;;;;10.53;45.29;150301.39;1761758;81;21620;-62
2022/05/06 01:19:01;;;;;;;5.10;1.52;;;;;;;10.49;45.26;150289.70;1762022;81;20970;-60
2022/05/06 01:21:37;;;;;;;2.83;1.37;;;;;;;10.45;45.26;150280.59;1762016;80;22197;-60
2022/05/06 01:24:05;;;;;;;4.17;1.52;;;;;;;10.41;45.37;150271.55;1762339;81;21104;-60
2022/05/06 01:27:04;;;;;;;2.92;1.52;;;;;;;10.42;45.50;150274.16;1738802;81;21084;-60
2022/05/06 01:29:32;;;;;;;2.62;1.60;;;;;;;10.44;45.63;150278.02;1762690;81;21053;-61
2022/05/06 01:32:00;;;;;;;4.95;1.47;;;;;;;10.47;45.63;150285.78;1783377;80;21367;-59
2022/05/06 01:34:29;;;;;;;4.08;1.85;;;;;;;10.48;45.68;150288.38;1785199;80;21942;-59
2022/05/06 01:36:57;;;;;;;3.35;1.50;;;;;;;10.49;45.79;150290.97;1785244;80;21001;-59
2022/05/06 01:39:30;;;;;;;5.60;1.60;;;;;;;10.47;45.77;150285.78;1785680;80;21012;-59
2022/05/06 01:42:00;;;;;;;3.10;1.40;;;;;;;10.45;45.83;150281.92;1785410;80;21040;-59
2022/05/06 01:44:31;;;;;;;2.40;1.50;;;;;;;10.42;45.89;150272.83;1783877;80;20912;-58
2022/05/06 01:46:58;;;;;;;6.97;1.62;;;;;;;10.38;45.93;150262.41;1754761;80;21932;-60
2022/05/06 01:49:28;;;;;;;5.28;1.42;;;;;;;10.38;45.99;150262.41;1785205;80;21417;-60
2022/05/06 01:51:57;;;;;;;6.58;1.60;;;;;;;10.35;46.04;150254.63;1785497;80;21029;-60
2022/05/06 01:54:26;;;;;;;2.00;1.40;;;;;;;10.35;46.09;150254.63;1785686;80;21499;-60
2022/05/06 01:56:53;;;;;;;2.98;1.85;;;;;;;10.31;46.24;150246.84;1785442;79;20920;-60
2022/05/06 01:59:22;;;;;;;2.05;1.30;;;;;;;10.30;46.34;150244.25;1785074;80;21203;-60
2022/05/06 02:01:51;;;;;;;6.05;1.50;;;;;;;10.27;46.49;150236.44;1784995;80;21024;-61
2022/05/06 02:07:06;;;;;;;8.10;1.92;;;;;;;10.19;46.66;150215.69;1785087;80;21068;-58
2022/05/06 02:09:34;;;;;;;5.12;1.52;;;;;;;10.13;46.73;150200.13;1784718;80;20975;-59
2022/05/06 02:12:05;;;;;;;4.85;1.70;;;;;;;10.07;46.84;150184.59;1784636;79;21425;-59
2022/05/06 02:14:34;;;;;;;5.17;1.87;;;;;;;10.03;46.85;150175.48;1782827;78;21131;-59
2022/05/06 02:17:12;;;;;;;4.60;2.02;;;;;;;9.98;46.85;150163.80;1783392;79;21044;-62
2022/05/06 02:19:47;;;;;;;4.17;1.70;;;;;;;9.93;46.74;150149.52;1781350;80;21052;-58
2022/05/06 02:22:19;;;;;;;3.27;1.67;;;;;;;9.85;47.40;150130.11;1723899;80;21047;-59
2022/05/06 02:24:48;;;;;;;5.17;2.10;;;;;;;9.73;47.61;150101.55;1782168;80;21424;-60
2022/05/06 02:27:23;;;;;;;7.03;1.87;;;;;;;9.64;47.92;150076.91;1767807;80;21106;-59
2022/05/06 02:35:28;;;;;;;4.87;2.10;;;;;;;9.37;49.66;150010.77;1769865;81;21091;-60
2022/05/06 02:37:56;;;;;;;5.55;2.05;;;;;;;9.28;49.91;149988.77;1770991;79;21196;-60
2022/05/06 02:40:25;;;;;;;4.08;2.08;;;;;;;9.22;49.74;149973.17;1770578;79;21079;-60
2022/05/06 02:42:52;;;;;;;4.67;2.10;;;;;;;9.18;49.73;149962.81;1770860;79;21103;-60
2022/05/06 02:45:20;;;;;;;6.10;2.05;;;;;;;9.15;49.91;149956.31;1770953;79;20952;-60
2022/05/06 02:47:47;;;;;;;5.25;2.20;;;;;;;9.13;50.08;149951.12;1770907;79;21110;-61
2022/05/06 02:50:15;;;;;;;5.85;2.05;;;;;;;9.08;50.31;149938.19;1770650;81;21284;-60
2022/05/06 02:52:42;;;;;;;4.75;2.00;;;;;;;9.02;50.74;149922.64;1770982;79;21059;-60
2022/05/06 02:55:11;;;;;;;4.53;2.25;;;;;;;8.97;51.11;149909.69;1770901;79;21058;-60
2022/05/06 02:57:39;;;;;;;5.33;2.25;;;;;;;8.88;51.69;149888.92;1770750;79;21008;-59
2022/05/06 03:00:07;;;;;;;3.22;2.08;;;;;;;8.79;52.27;149864.30;1771043;79;20985;-59
2022/05/06 03:02:36;;;;;;;7.08;2.60;;;;;;;8.66;53.23;149831.91;1771100;79;21760;-59
2022/05/06 03:05:06;;;;;;;7.40;2.58;;;;;;;8.52;53.29;149798.23;1771028;79;20941;-60
2022/05/06 03:07:34;;;;;;;9.93;2.42;;;;;;;8.45;53.23;149781.34;1739045;81;22277;-60
2022/05/06 03:12:49;;;;;;;7.95;2.72;;;;;;;8.43;53.86;149774.84;1712185;83;21064;-60
2022/05/06 03:15:17;;;;;;;7.55;3.20;;;;;;;8.42;53.86;149772.25;1711479;83;21301;-60
2022/05/06 03:17:52;;;;;;;5.42;2.60;;;;;;;8.42;53.91;149772.25;1711292;82;21056;-60
2022/05/06 03:20:20;;;;;;;7.00;2.80;;;;;;;8.43;53.77;149774.84;1712341;82;21474;-60
2022/05/06 03:22:49;;;;;;;8.43;3.15;;;;;;;8.47;53.95;149785.19;1712482;83;21036;-60
2022/05/06 03:25:17;;;;;;;9.58;2.83;;;;;;;8.51;54.06;149795.66;1712562;83;21125;-60
2022/05/06 03:28:02;;;;;;;8.00;3.05;;;;;;;8.55;54.52;149806.00;1712317;82;21206;-59
2022/05/06 03:30:31;;;;;;;9.48;2.92;;;;;;;8.56;54.67;149808.59;1711876;83;21545;-59
2022/05/06 03:33:00;;;;;;;8.08;3.25;;;;;;;8.60;54.54;149818.95;1711798;82;20885;-60
2022/05/06 03:35:39;;;;;;;7.87;3.37;;;;;;;8.68;54.04;149838.41;1712235;83;21446;-61
2022/05/06 03:38:08;;;;;;;8.75;3.17;;;;;;;8.77;53.90;149860.44;1712523;83;21017;-59
2022/05/06 03:40:37;;;;;;;12.33;2.98;;;;;;;8.85;53.83;149879.88;1712262;83;22879;-61
2022/05/06 03:43:05;;;;;;;7.78;3.45;;;;;;;8.90;53.55;149892.83;1712294;83;20961;-60
2022/05/06 03:45:32;;;;;;;6.72;3.10;;;;;;;8.97;53.31;149909.69;1712342;83;21093;-60
2022/05/06 03:48:00;;;;;;;7.55;3.52;;;;;;;9.07;52.85;149935.59;1712474;83;20933;-59
2022/05/06 03:53:16;;;;;;;13.60;3.70;;;;;;;9.33;52.31;150000.41;1712074;82;21243;-60
2022/05/06 03:55:46;;;;;;;10.23;3.67;;;;;;;9.46;51.62;150032.81;1712217;83;21067;-59
2022/05/06 03:58:13;;;;;;;9.45;4.33;;;;;;;9.56;51.26;150058.77;1711528;83;20901;-60
2022/05/06 04:00:41;;;;;;;11.93;4.10;;;;;;;9.65;50.98;150080.81;1711691;83;21047;-59
2022/05/06 04:03:09;;;;;;;10.95;3.40;;;;;;;9.72;50.81;150098.95;1712012;83;21000;-60
2022/05/06 04:05:37;;;;;;;6.03;3.20;;;;;;;9.86;50.93;150133.97;1712015;83;21798;-58
2022/05/06 04:08:07;;;;;;;6.55;3.17;;;;;;;9.99;51.20;150166.39;1712241;83;21048;-61
2022/05/06 04:10:34;;;;;;;8.78;3.50;;;;;;;10.11;50.99;150194.95;1712030;83;20992;-59
2022/05/06 04:13:02;;;;;;;10.32;3.92;;;;;;;10.22;50.71;150223.47;1729995;82;21424;-60
2022/05/06 04:15:32;;;;;;;7.90;3.55;;;;;;;10.34;50.33;150252.03;1730356;82;21060;-61
2022/05/06 04:18:01;;;;;;;6.35;3.15;;;;;;;10.49;50.55;150290.97;1725949;82;21088;-61
2022/05/06 04:23:29;;;;;;;7.78;3.25;;;;;;;10.74;50.32;150353.31;1730236;82;21009;-58
2022/05/06 04:26:07;;;;;;;6.62;3.27;;;;;;;10.92;49.95;150397.41;1730218;82;21005;-59
2022/05/06 04:28:36;;;;;;;9.40;3.58;;;;;;;11.08;49.87;150438.94;1729830;82;20949;-59
2022/05/06 04:31:05;;;;;;;11.90;3.70;;;;;;;11.25;49.40;150481.78;1730853;82;21936;-58
2022/05/06 04:33:39;;;;;;;7.72;4.05;;;;;;;11.37;48.80;150510.36;1730061;82;21076;-58
2022/05/06 04:36:07;;;;;;;8.65;4.15;;;;;;;11.48;48.51;150537.63;1730040;82;21032;-59
2022/05/06 04:38:35;;;;;;;7.12;3.80;;;;;;;11.60;48.09;150570.09;1729886;82;21081;-59
2022/05/06 04:41:04;;;;;;;8.63;4.40;;;;;;;11.72;47.82;150599.97;1730212;82;20859;-59
2022/05/06 04:43:33;;;;;;;13.30;5.00;;;;;;;11.85;47.75;150631.16;1730221;82;21343;-58
2022/05/06 04:46:03;;;;;;;9.55;5.08;;;;;;;11.96;47.16;150659.70;1730557;82;20994;-59
2022/05/06 04:48:31;;;;;;;11.68;5.20;;;;;;;12.09;47.13;150690.95;1729812;82;21064;-59
2022/05/06 04:51:00;;;;;;;16.82;5.80;;;;;;;12.21;46.43;150722.09;1730336;82;21435;-59
2022/05/06 04:53:27;;;;;;;12.20;5.40;;;;;;;12.32;46.26;150750.72;1729870;82;21514;-59
2022/05/06 04:55:55;;;;;;;12.23;5.92;;;;;;;12.50;45.84;150793.58;1730297;82;21242;-60
2022/05/06 04:58:24;;;;;;;10.43;5.53;;;;;;;12.69;45.53;150841.64;1729428;82;21084;-60
2022/05/06 05:00:52;;;;;;;14.05;5.62;;;;;;;12.82;44.79;150874.13;1725167;82;21111;-60
2022/05/06 05:03:21;;;;;;;14.65;5.70;;;;;;;12.94;44.81;150904.08;1730250;82;21106;-61
2022/05/06 05:05:50;;;;;;;11.70;6.20;;;;;;;13.14;44.75;150956.03;1730009;82;21104;-60
2022/05/06 05:08:18;;;;;;;12.53;5.90;;;;;;;13.31;43.92;150998.97;1729575;82;21518;-60
2022/05/06 05:10:54;;;;;;;15.45;6.20;;;;;;;13.44;43.38;151030.20;1729860;82;20985;-59
2022/05/06 05:13:24;;;;;;;14.50;6.85;;;;;;;13.53;42.59;151052.31;1729145;82;21120;-60
2022/05/06 05:15:51;;;;;;;11.73;5.87;;;;;;;13.62;42.22;151075.75;1729689;82;21120;-59
2022/05/06 05:18:20;;;;;;;14.25;6.42;;;;;;;13.69;42.00;151093.94;1730594;82;21123;-58
2022/05/06 05:20:49;;;;;;;12.35;6.20;;;;;;;13.82;42.01;151126.45;1730502;82;21896;-60
2022/05/06 05:23:16;;;;;;;13.20;6.42;;;;;;;13.95;42.27;151158.97;1729935;82;21084;-60
2022/05/06 05:25:44;;;;;;;13.22;5.92;;;;;;;14.14;42.43;151205.81;1725213;82;21068;-60
2022/05/06 05:28:11;;;;;;;11.35;5.65;;;;;;;14.27;42.27;151239.66;1730431;82;20946;-59
2022/05/06 05:30:40;;;;;;;12.28;6.08;;;;;;;14.36;42.45;151261.72;1730133;82;21048;-59
2022/05/06 05:33:09;;;;;;;13.18;6.15;;;;;;;14.51;42.77;151299.50;1730358;82;21237;-59
2022/05/06 05:35:40;;;;;;;13.15;5.65;;;;;;;14.61;42.41;151324.23;1730047;82;21080;-59
2022/05/06 05:38:09;;;;;;;12.65;6.45;;;;;;;14.64;41.86;151330.70;1730492;82;21005;-60
2022/05/06 05:40:37;;;;;;;11.97;5.72;;;;;;;14.69;42.15;151343.72;1730034;82;21132;-61
2022/05/06 05:43:04;;;;;;;9.78;6.10;;;;;;;14.80;41.40;151372.41;1730642;82;20965;-59
2022/05/06 05:48:20;;;;;;;12.33;6.20;;;;;;;14.94;41.47;151406.28;1730054;82;21052;-59
2022/05/06 05:50:49;;;;;;;11.78;5.92;;;;;;;14.91;41.39;151399.75;1730521;82;21600;-60
2022/05/06 05:53:18;;;;;;;11.40;6.17;;;;;;;14.95;41.42;151408.88;1730299;82;21104;-59
2022/05/06 05:55:47;;;;;;;11.97;6.30;;;;;;;15.01;41.58;151424.48;1730432;82;21581;-59
2022/05/06 05:58:16;;;;;;;12.00;6.30;;;;;;;14.99;41.55;151419.28;1730992;82;21128;-60
2022/05/06 06:00:44;;;;;;;16.07;6.15;;;;;;;15.02;41.30;151427.09;1730363;82;21073;-60
2022/05/06 06:03:12;;;;;;;11.15;5.42;;;;;;;15.02;41.60;151427.09;1730361;82;20918;-59
2022/05/06 06:05:42;;;;;;;11.57;5.80;;;;;;;15.01;41.75;151424.48;1730121;82;21530;-60
2022/05/06 06:08:10;;;;;;;12.50;6.22;;;;;;;15.07;41.83;151440.09;1730567;82;20938;-62
2022/05/06 06:10:39;;;;;;;9.48;5.40;;;;;;;15.17;42.02;151464.83;1730675;82;21057;-61
2022/05/06 06:13:07;;;;;;;14.55;6.45;;;;;;;15.30;42.18;151497.38;1730740;82;20937;-60
2022/05/06 06:15:36;;;;;;;13.48;6.25;;;;;;;15.40;41.84;151523.44;1730428;82;21024;-60
2022/05/06 06:18:04;;;;;;;10.65;6.50;;;;;;;15.37;41.73;151514.31;1730630;82;20950;-60
2022/05/06 06:20:33;;;;;;;10.08;5.83;;;;;;;15.30;41.97;151497.38;1730520;82;21608;-61
2022/05/06 06:23:01;;;;;;;10.75;5.33;;;;;;;15.37;41.81;151515.64;1730574;82;21219;-60
2022/05/06 06:25:29;;;;;;;8.85;5.60;;;;;;;15.46;41.73;151539.06;1730271;82;21000;-58
2022/05/06 06:27:58;;;;;;;10.48;6.10;;;;;;;15.53;41.07;151556.00;1726426;81;21008;-60
2022/05/06 06:30:26;;;;;;;9.18;5.78;;;;;;;15.56;41.12;151562.47;1724988;83;21043;-60
2022/05/06 06:32:55;;;;;;;16.02;6.12;;;;;;;15.64;41.02;151583.34;1728789;81;20997;-60
2022/05/06 06:35:23;;;;;;;16.17;6.28;;;;;;;15.69;41.24;151596.34;1750755;81;21151;-60
2022/05/06 06:37:55;;;;;;;11.25;5.58;;;;;;;15.72;41.74;151602.87;1741087;81;21072;-59
2022/05/06 06:40:24;;;;;;;12.45;6.35;;;;;;;15.72;41.33;151604.16;1729795;82;21079;-59
2022/05/06 06:42:51;;;;;;;10.93;6.00;;;;;;;15.72;41.15;151602.87;1735762;81;21044;-60
2022/05/06 06:45:23;;;;;;;11.75;6.45;;;;;;;15.66;41.14;151588.55;1723828;81;21516;-61
2022/05/06 06:47:58;;;;;;;11.93;5.75;;;;;;;15.59;41.96;151570.33;1723020;81;21141;-61
2022/05/06 06:50:31;;;;;;;11.35;6.47;;;;;;;15.58;41.78;151567.67;1731154;81;21035;-60
2022/05/06 06:53:17;;;;;;;13.08;5.85;;;;;;;15.67;41.95;151591.14;1716870;83;20988;-60
2022/05/06 06:55:44;;;;;;;11.78;6.10;;;;;;;15.63;41.73;151580.73;1732715;81;21350;-59
2022/05/06 06:58:12;;;;;;;9.63;6.00;;;;;;;15.55;41.84;151559.88;1733188;81;20965;-59
2022/05/06 07:00:44;;;;;;;10.80;5.95;;;;;;;15.61;41.82;151576.81;1738282;82;21172;-60
2022/05/06 07:03:12;;;;;;;12.88;6.10;;;;;;;15.66;41.40;151588.55;1728782;81;21060;-58
2022/05/06 07:11:52;;;;;;;13.20;6.40;;;;;;;15.63;41.24;151579.41;1695196;83;21104;-60
2022/05/06 07:13:42;;;;;;;14.35;6.42;;;;;;;15.66;42.23;151588.55;1673471;84;21128;-59
2022/05/06 07:16:09;;;;;;;11.18;6.28;;;;;;;15.68;42.67;151593.75;1717040;82;20993;-60
2022/05/06 07:18:37;;;;;;;13.43;6.42;;;;;;;15.73;43.03;151606.77;1716541;83;21107;-59
2022/05/06 07:21:05;;;;;;;10.30;6.05;;;;;;;15.74;42.39;151609.36;1715566;83;21507;-60
2022/05/06 07:23:32;;;;;;;11.35;6.45;;;;;;;15.67;42.48;151591.14;1716278;83;21111;-59
2022/05/06 07:26:00;;;;;;;15.78;5.87;;;;;;;15.62;43.14;151578.12;1704439;82;22162;-59
2022/05/06 07:28:27;;;;;;;9.65;6.28;;;;;;;15.65;43.57;151585.94;1707107;83;21140;-61
2022/05/06 07:30:55;;;;;;;12.80;6.35;;;;;;;15.59;42.91;151570.33;1702512;82;21102;-59
2022/05/06 07:33:22;;;;;;;11.53;6.37;;;;;;;15.54;43.58;151558.59;1697199;82;21048;-61
2022/05/06 07:35:49;;;;;;;10.82;6.28;;;;;;;15.55;43.32;151561.20;1704402;84;21065;-60
2022/05/06 07:38:16;;;;;;;11.00;6.22;;;;;;;15.57;42.62;151566.41;1703037;82;21502;-59
2022/05/06 07:40:43;;;;;;;13.85;6.35;;;;;;;15.58;42.93;151567.67;1670591;84;21077;-59
2022/05/06 07:43:12;;;;;;;10.70;6.25;;;;;;;15.56;41.76;151562.47;1688926;84;20996;-59
2022/05/06 07:45:41;;;;;;;11.93;6.35;;;;;;;15.51;41.27;151549.47;1690016;84;22105;-60
2022/05/06 07:48:10;;;;;;;13.90;5.53;;;;;;;15.49;41.38;151545.58;1663519;86;20985;-60
2022/05/06 07:50:37;;;;;;;10.68;6.17;;;;;;;15.53;40.97;151556.00;1663327;86;21834;-61
2022/05/06 07:53:05;;;;;;;15.98;6.45;;;;;;;15.51;40.73;151550.78;1660222;84;21476;-60
2022/05/06 07:55:36;;;;;;;11.50;6.25;;;;;;;15.50;41.00;151546.86;1700003;82;21097;-60
2022/05/06 07:58:04;;;;;;;10.72;5.78;;;;;;;15.55;40.47;151559.88;1700014;84;21095;-60
2022/05/06 08:00:32;;;;;;;16.37;6.20;;;;;;;15.59;40.02;151570.33;1699491;84;21046;-60
2022/05/06 08:05:47;;;;;;;15.53;6.03;;;;;;;15.57;39.76;151565.08;1733947;81;21053;-59
2022/05/06 08:08:15;;;;;;;11.18;5.72;;;;;;;15.54;39.64;151558.59;1733818;82;20969;-60
2022/05/06 08:10:44;;;;;;;13.08;6.20;;;;;;;15.56;39.16;151562.47;1734120;82;21116;-59
2022/05/06 08:13:12;;;;;;;8.88;5.40;;;;;;;15.65;39.22;151585.94;1722428;82;20939;-59
2022/05/06 08:15:40;;;;;;;13.22;5.80;;;;;;;15.80;39.33;151622.38;1737303;82;39141;-60
2022/05/06 08:18:09;;;;;;;10.40;5.47;;;;;;;15.94;39.01;151657.64;1745595;81;21024;-59
2022/05/06 08:20:39;;;;;;;12.50;5.70;;;;;;;16.01;38.88;151677.13;1745339;82;21835;-59
2022/05/06 08:23:07;;;;;;;12.78;5.92;;;;;;;16.11;39.18;151701.89;1745538;81;20984;-62
2022/05/06 08:25:34;;;;;;;10.55;5.70;;;;;;;16.27;39.05;151740.98;1745474;82;21027;-61
2022/05/06 08:28:01;;;;;;;8.85;5.33;;;;;;;16.36;38.99;151763.14;1731659;82;21527;-60
2022/05/06 08:30:29;;;;;;;14.28;6.05;;;;;;;16.39;38.99;151770.95;1714461;83;21017;-59
2022/05/06 08:32:58;;;;;;;11.65;5.80;;;;;;;16.41;39.46;151776.16;1714869;83;20950;-59
2022/05/06 08:35:25;;;;;;;9.68;5.72;;;;;;;16.43;39.95;151781.38;1714557;83;21092;-60
2022/05/06 08:37:52;;;;;;;15.00;6.70;;;;;;;16.44;40.34;151783.97;1719023;82;21039;-60
2022/05/06 08:40:29;;;;;;;11.22;6.20;;;;;;;16.42;40.68;151780.09;1730565;82;21481;-61
2022/05/06 08:42:56;;;;;;;12.90;6.17;;;;;;;16.45;41.18;151786.56;1745513;82;21079;-59
2022/05/06 08:50:57;;;;;;;10.48;6.03;;;;;;;16.55;41.17;151812.66;1715750;81;21044;-60
2022/05/06 08:53:30;;;;;;;13.10;6.65;;;;;;;16.48;40.66;151794.44;1714045;82;21173;-59
2022/05/06 08:56:00;;;;;;;14.43;6.85;;;;;;;16.43;40.22;151781.38;1705159;84;21058;-59
2022/05/06 08:58:35;;;;;;;11.75;7.12;;;;;;;16.40;39.78;151774.88;1705920;82;20947;-62
2022/05/06 09:01:13;;;;;;;14.75;6.75;;;;;;;16.32;40.21;151755.33;1711652;81;21558;-60
2022/05/06 09:03:41;;;;;;;10.05;6.10;;;;;;;16.30;40.01;151748.80;1720733;82;21082;-62
2022/05/06 09:06:26;;;;;;;12.18;6.17;;;;;;;16.25;40.28;151737.11;1704524;84;21103;-61
2022/05/06 09:08:55;;;;;;;11.22;6.55;;;;;;;16.24;40.43;151734.45;1704338;84;21066;-60
2022/05/06 09:17:23;;;;;;;10.20;6.17;;;;;;;16.22;40.22;151729.25;1698928;82;21048;-60
2022/05/06 09:19:51;;;;;;;13.70;6.90;;;;;;;16.25;39.87;151737.11;1695794;82;21762;-60
2022/05/06 09:22:18;;;;;;;11.85;6.45;;;;;;;16.24;40.11;151734.45;1703429;82;20907;-60
2022/05/06 09:24:50;;;;;;;12.68;6.60;;;;;;;16.26;39.86;151739.70;1703646;82;21683;-60
2022/05/06 09:27:18;;;;;;;12.18;6.12;;;;;;;16.27;40.06;151742.31;1704639;83;21069;-59
2022/05/06 09:29:50;;;;;;;12.82;6.95;;;;;;;16.28;40.87;151744.91;1708312;82;21028;-60
2022/05/06 09:32:24;;;;;;;11.25;6.97;;;;;;;16.31;41.16;151752.72;1703518;82;21951;-60
2022/05/06 09:35:13;;;;;;;11.48;7.15;;;;;;;16.33;41.67;151756.61;1700400;82;21265;-58
2022/05/06 09:37:41;;;;;;;11.53;6.65;;;;;;;16.41;41.28;151776.16;1683026;82;21126;-60
2022/05/06 09:40:24;;;;;;;12.78;7.08;;;;;;;16.45;41.47;151787.91;1687299;84;21054;-60
2022/05/06 09:43:00;;;;;;;12.63;6.60;;;;;;;16.45;41.21;151786.56;1687408;84;21087;-61
2022/05/06 09:45:38;;;;;;;13.90;7.00;;;;;;;16.44;41.31;151783.97;1686925;84;21071;-59
2022/05/06 09:48:08;;;;;;;11.93;7.25;;;;;;;16.45;41.99;151786.56;1687488;85;21040;-60
2022/05/06 09:50:45;;;;;;;14.90;7.53;;;;;;;16.51;42.13;151800.92;1704444;82;21077;-59
2022/05/06 09:53:14;;;;;;;11.68;7.05;;;;;;;16.59;40.71;151823.08;1703485;84;21494;-59
2022/05/06 09:55:46;;;;;;;15.25;7.70;;;;;;;16.64;39.98;151833.50;1704365;82;21335;-62
2022/05/06 09:58:16;;;;;;;12.85;7.05;;;;;;;16.66;39.86;151838.70;1724473;82;21243;-60
2022/05/06 10:00:43;;;;;;;15.38;7.83;;;;;;;16.63;40.49;151830.89;1706250;82;21119;-61
2022/05/06 10:03:10;;;;;;;14.80;6.83;;;;;;;16.64;39.84;151833.50;1697320;84;20956;-60
2022/05/06 10:05:38;;;;;;;17.10;7.47;;;;;;;16.64;40.28;151834.81;1700928;82;21062;-60
2022/05/06 10:08:18;;;;;;;15.30;7.15;;;;;;;16.65;40.07;151836.09;1731207;82;21509;-59
2022/05/06 10:11:01;;;;;;;13.45;7.50;;;;;;;16.63;39.75;151832.22;1709001;82;21140;-59
2022/05/06 10:13:31;;;;;;;15.65;7.45;;;;;;;16.58;39.48;151820.47;1709106;83;21073;-61
2022/05/06 10:15:58;;;;;;;14.05;7.78;;;;;;;16.53;39.16;151807.45;1701050;82;20999;-59
2022/05/06 10:18:37;;;;;;;15.80;7.92;;;;;;;16.50;38.77;151799.64;1699499;84;21855;-60
2022/05/06 10:21:06;;;;;;;15.30;7.65;;;;;;;16.47;38.44;151793.11;1700119;82;21019;-60
2022/05/06 10:23:54;;;;;;;12.25;7.15;;;;;;;16.46;38.68;151789.19;1716429;81;21237;-61
2022/05/06 10:26:40;;;;;;;14.10;7.58;;;;;;;16.41;39.29;151776.16;1733334;82;21668;-59
2022/05/06 10:32:25;;;;;;;15.40;6.97;;;;;;;16.32;38.57;151755.33;1705135;82;21040;-60
2022/05/06 10:35:02;;;;;;;14.25;7.80;;;;;;;16.26;37.78;151738.37;1682299;83;21370;-60
2022/05/06 10:37:43;;;;;;;13.28;7.60;;;;;;;16.25;38.73;151737.11;1714315;82;21143;-60
2022/05/06 10:40:31;;;;;;;14.70;7.92;;;;;;;16.27;38.42;151742.31;1712220;82;21036;-60
2022/05/06 10:42:58;;;;;;;11.12;6.67;;;;;;;16.34;38.27;151759.22;1696608;82;21058;-59
2022/05/06 10:45:35;;;;;;;18.80;7.03;;;;;;;16.39;38.25;151772.28;1698824;82;21594;-60
2022/05/06 10:48:01;;;;;;;14.95;7.90;;;;;;;16.47;37.47;151791.83;1693881;83;21072;-60
2022/05/06 10:50:38;;;;;;;15.65;8.35;;;;;;;16.54;35.34;151810.06;1692837;83;21897;-60
2022/05/06 10:53:06;;;;;;;14.83;7.85;;;;;;;16.50;35.38;151799.64;1671341;85;20986;-61
2022/05/06 10:55:34;;;;;;;15.50;7.50;;;;;;;16.51;35.75;151802.25;1671911;84;21087;-62
2022/05/06 10:58:04;;;;;;;13.40;7.35;;;;;;;16.53;36.28;151807.45;1660928;84;21037;-61
2022/05/06 11:00:34;;;;;;;14.10;7.58;;;;;;;16.59;36.80;151823.08;1661161;84;21116;-64
2022/05/06 11:03:01;;;;;;;17.10;7.80;;;;;;;16.68;36.47;151845.23;1664187;84;21954;-60
2022/05/06 11:05:29;;;;;;;16.67;7.33;;;;;;;16.73;36.66;151856.98;1708542;83;21146;-60
2022/05/06 11:07:59;;;;;;;16.55;7.70;;;;;;;16.81;36.33;151877.81;1670826;84;21029;-60
2022/05/06 11:10:30;;;;;;;13.83;7.55;;;;;;;16.86;36.59;151890.84;1659298;86;21097;-60
2022/05/06 11:12:58;;;;;;;13.75;7.10;;;;;;;16.84;37.44;151885.62;1713991;82;21570;-61
2022/05/06 11:15:31;;;;;;;14.95;7.80;;;;;;;16.83;37.83;151881.75;1706686;82;21795;-61
2022/05/06 11:18:04;;;;;;;16.65;7.50;;;;;;;16.85;36.38;151886.95;1712430;82;21055;-61
2022/05/06 11:20:38;;;;;;;16.07;7.62;;;;;;;16.83;36.77;151883.03;1705675;82;21072;-60
2022/05/06 11:23:11;;;;;;;20.60;7.65;;;;;;;16.87;36.10;151893.44;1716303;82;21009;-60
2022/05/06 11:25:45;;;;;;;17.20;7.22;;;;;;;16.93;35.46;151906.52;1713178;82;20973;-60
2022/05/06 11:28:17;;;;;;;12.68;7.12;;;;;;;17.00;34.41;151924.80;1707061;82;21872;-61
2022/05/06 11:30:49;;;;;;;19.65;8.80;;;;;;;17.01;34.43;151928.67;1680327;84;21081;-60
2022/05/06 11:33:25;;;;;;;14.87;7.80;;;;;;;17.05;34.59;151937.81;1679616;85;21065;-60
2022/05/06 11:36:01;;;;;;;15.88;7.37;;;;;;;17.12;34.92;151956.05;1680133;85;21121;-61
2022/05/06 11:38:37;;;;;;;13.35;7.22;;;;;;;17.14;34.11;151961.31;1709533;82;21058;-61
2022/05/06 11:41:14;;;;;;;14.20;6.97;;;;;;;17.13;34.40;151958.70;1681464;84;21217;-62
2022/05/06 11:43:43;;;;;;;14.65;6.75;;;;;;;17.12;34.15;151954.78;1686902;82;21033;-61
2022/05/06 11:49:06;;;;;;;;;;;;;;;17.08;35.21;151945.63;1714099;82;21410;-60
2022/05/06 11:51:41;;;;;;;15.48;7.92;;;;;;;17.13;34.90;151958.70;1726964;82;20475;-60
2022/05/06 11:54:09;;;;;;;12.85;7.25;;;;;;;17.13;34.84;151958.70;1719407;82;20947;-60
2022/05/06 11:56:36;;;;;;;13.95;7.55;;;;;;;17.15;34.96;151963.92;1699695;84;21068;-60
2022/05/06 11:59:04;;;;;;;11.88;6.95;;;;;;;17.20;34.77;151974.33;1700328;82;20991;-60
2022/05/06 12:01:35;;;;;;;14.40;7.60;;;;;;;17.21;34.59;151976.94;1699867;84;21236;-60
2022/05/06 12:04:08;;;;;;;14.30;6.70;;;;;;;17.25;34.73;151987.36;1703026;82;21049;-61
2022/05/06 12:06:41;;;;;;;14.05;7.03;;;;;;;17.24;34.11;151984.75;1703966;83;21032;-61
2022/05/06 12:09:14;;;;;;;12.05;6.35;;;;;;;17.21;33.79;151976.94;1723171;82;20973;-61
2022/05/06 12:11:42;;;;;;;11.57;6.45;;;;;;;17.17;33.88;151969.13;1734381;82;20988;-60
2022/05/06 12:14:13;;;;;;;12.47;5.95;;;;;;;17.14;33.81;151961.31;1731144;82;21083;-60
2022/05/06 12:16:56;;;;;;;14.87;6.78;;;;;;;17.13;33.74;151958.70;1720130;82;21040;-61
2022/05/06 12:19:39;;;;;;;12.65;7.28;;;;;;;17.16;33.19;151965.19;1710157;82;21142;-60